sensor_id;sensor_type;location;lat;lon;timestamp;P1;durP1;ratioP1;P2;durP2;ratioP2
36689;SDS011;22676;51.120;3.702;2023-08-24T00:01:17;2.72;;;1.55;;
36689;SDS011;22676;51.120;3.702;2023-08-24T00:03:45;1.77;;;1.30;;
36689;SDS011;22676;51.120;3.702;2023-08-24T00:06:12;1.45;;;1.00;;
36689;SDS011;22676;51.120;3.702;2023-08-24T00:08:38;2.17;;;1.23;;
36689;SDS011;22676;51.120;3.702;2023-08-24T00:11:04;3.03;;;1.40;;
36689;SDS011;22676;51.120;3.702;2023-08-24T00:13:30;1.20;;;1.10;;
36689;SDS011;22676;51.120;3.702;2023-08-24T00:15:56;1.25;;;1.15;;
36689;SDS011;22676;51.120;3.702;2023-08-24T00:18:22;1.55;;;1.10;;
36689;SDS011;22676;51.120;3.702;2023-08-24T00:20:49;2.35;;;1.00;;
36689;SDS011;22676;51.120;3.702;2023-08-24T00:23:15;1.90;;;1.15;;
36689;SDS011;22676;51.120;3.702;2023-08-24T00:25:41;2.13;;;1.10;;
36689;SDS011;22676;51.120;3.702;2023-08-24T00:28:06;1.55;;;1.25;;
36689;SDS011;22676;51.120;3.702;2023-08-24T00:30:32;1.33;;;1.05;;
36689;SDS011;22676;51.120;3.702;2023-08-24T00:32:58;1.73;;;1.10;;
36689;SDS011;22676;51.120;3.702;2023-08-24T00:35:24;1.77;;;1.10;;
36689;SDS011;22676;51.120;3.702;2023-08-24T00:37:50;2.88;;;1.20;;
36689;SDS011;22676;51.120;3.702;2023-08-24T00:40:16;1.77;;;0.85;;
36689;SDS011;22676;51.120;3.702;2023-08-24T00:42:42;1.10;;;0.90;;
36689;SDS011;22676;51.120;3.702;2023-08-24T00:45:10;1.20;;;1.10;;
36689;SDS011;22676;51.120;3.702;2023-08-24T00:47:45;1.55;;;1.10;;
36689;SDS011;22676;51.120;3.702;2023-08-24T00:50:12;1.48;;;1.00;;
36689;SDS011;22676;51.120;3.702;2023-08-24T00:52:38;1.00;;;0.88;;
36689;SDS011;22676;51.120;3.702;2023-08-24T00:55:06;1.67;;;1.17;;
36689;SDS011;22676;51.120;3.702;2023-08-24T00:57:32;3.95;;;1.42;;
36689;SDS011;22676;51.120;3.702;2023-08-24T00:59:59;2.03;;;1.40;;
36689;SDS011;22676;51.120;3.702;2023-08-24T01:02:30;2.80;;;1.50;;
36689;SDS011;22676;51.120;3.702;2023-08-24T01:04:56;2.38;;;1.50;;
36689;SDS011;22676;51.120;3.702;2023-08-24T01:07:23;2.75;;;1.52;;
36689;SDS011;22676;51.120;3.702;2023-08-24T01:09:49;1.67;;;1.10;;
36689;SDS011;22676;51.120;3.702;2023-08-24T01:15:22;2.13;;;1.20;;
36689;SDS011;22676;51.120;3.702;2023-08-24T01:18:08;1.23;;;1.10;;
36689;SDS011;22676;51.120;3.702;2023-08-24T01:20:40;1.20;;;1.10;;
36689;SDS011;22676;51.120;3.702;2023-08-24T01:25:53;1.77;;;1.20;;
36689;SDS011;22676;51.120;3.702;2023-08-24T01:28:31;1.17;;;1.00;;
36689;SDS011;22676;51.120;3.702;2023-08-24T01:30:57;2.22;;;1.20;;
36689;SDS011;22676;51.120;3.702;2023-08-24T01:33:23;1.35;;;1.20;;
36689;SDS011;22676;51.120;3.702;2023-08-24T01:35:50;1.73;;;1.20;;
36689;SDS011;22676;51.120;3.702;2023-08-24T01:38:15;2.22;;;1.27;;
36689;SDS011;22676;51.120;3.702;2023-08-24T01:43:07;1.27;;;1.10;;
36689;SDS011;22676;51.120;3.702;2023-08-24T01:45:34;1.48;;;1.00;;
36689;SDS011;22676;51.120;3.702;2023-08-24T01:48:01;2.40;;;1.00;;
36689;SDS011;22676;51.120;3.702;2023-08-24T01:50:29;1.48;;;1.05;;
36689;SDS011;22676;51.120;3.702;2023-08-24T01:52:55;1.67;;;1.00;;
36689;SDS011;22676;51.120;3.702;2023-08-24T01:55:22;1.27;;;1.17;;
36689;SDS011;22676;51.120;3.702;2023-08-24T01:57:48;1.77;;;1.23;;
36689;SDS011;22676;51.120;3.702;2023-08-24T02:00:14;1.77;;;1.30;;
36689;SDS011;22676;51.120;3.702;2023-08-24T02:02:42;2.35;;;1.52;;
36689;SDS011;22676;51.120;3.702;2023-08-24T02:05:09;1.45;;;1.10;;
36689;SDS011;22676;51.120;3.702;2023-08-24T02:07:34;1.50;;;1.00;;
36689;SDS011;22676;51.120;3.702;2023-08-24T02:10:01;1.17;;;1.05;;
36689;SDS011;22676;51.120;3.702;2023-08-24T02:12:26;1.27;;;1.10;;
36689;SDS011;22676;51.120;3.702;2023-08-24T02:14:52;1.10;;;1.00;;
36689;SDS011;22676;51.120;3.702;2023-08-24T02:17:18;1.48;;;1.15;;
36689;SDS011;22676;51.120;3.702;2023-08-24T02:19:43;2.78;;;1.02;;
36689;SDS011;22676;51.120;3.702;2023-08-24T02:22:09;1.75;;;1.00;;
36689;SDS011;22676;51.120;3.702;2023-08-24T02:24:35;1.25;;;1.13;;
36689;SDS011;22676;51.120;3.702;2023-08-24T02:27:00;1.67;;;1.00;;
36689;SDS011;22676;51.120;3.702;2023-08-24T02:29:26;1.13;;;1.02;;
36689;SDS011;22676;51.120;3.702;2023-08-24T02:31:52;1.10;;;1.00;;
36689;SDS011;22676;51.120;3.702;2023-08-24T02:34:18;1.83;;;1.20;;
36689;SDS011;22676;51.120;3.702;2023-08-24T02:36:44;1.15;;;1.00;;
36689;SDS011;22676;51.120;3.702;2023-08-24T02:39:10;1.45;;;1.10;;
36689;SDS011;22676;51.120;3.702;2023-08-24T02:41:35;1.10;;;1.00;;
36689;SDS011;22676;51.120;3.702;2023-08-24T02:44:02;1.17;;;0.95;;
36689;SDS011;22676;51.120;3.702;2023-08-24T02:46:28;1.20;;;1.10;;
36689;SDS011;22676;51.120;3.702;2023-08-24T02:48:54;1.00;;;0.90;;
36689;SDS011;22676;51.120;3.702;2023-08-24T02:51:23;2.10;;;1.15;;
36689;SDS011;22676;51.120;3.702;2023-08-24T02:53:49;1.15;;;1.05;;
36689;SDS011;22676;51.120;3.702;2023-08-24T02:56:15;2.70;;;1.40;;
36689;SDS011;22676;51.120;3.702;2023-08-24T02:58:41;2.25;;;1.30;;
36689;SDS011;22676;51.120;3.702;2023-08-24T03:01:07;2.70;;;1.65;;
36689;SDS011;22676;51.120;3.702;2023-08-24T03:03:33;1.83;;;1.60;;
36689;SDS011;22676;51.120;3.702;2023-08-24T03:06:04;1.67;;;1.30;;
36689;SDS011;22676;51.120;3.702;2023-08-24T03:08:31;2.97;;;1.23;;
36689;SDS011;22676;51.120;3.702;2023-08-24T03:10:57;0.95;;;0.80;;
36689;SDS011;22676;51.120;3.702;2023-08-24T03:13:24;1.10;;;1.00;;
36689;SDS011;22676;51.120;3.702;2023-08-24T03:15:50;0.95;;;0.80;;
36689;SDS011;22676;51.120;3.702;2023-08-24T03:18:17;1.13;;;0.93;;
36689;SDS011;22676;51.120;3.702;2023-08-24T03:20:43;3.88;;;1.10;;
36689;SDS011;22676;51.120;3.702;2023-08-24T03:23:10;1.17;;;1.08;;
36689;SDS011;22676;51.120;3.702;2023-08-24T03:25:36;1.10;;;1.00;;
36689;SDS011;22676;51.120;3.702;2023-08-24T03:28:02;1.10;;;1.00;;
36689;SDS011;22676;51.120;3.702;2023-08-24T03:30:29;1.75;;;1.15;;
36689;SDS011;22676;51.120;3.702;2023-08-24T03:32:54;1.38;;;0.90;;
36689;SDS011;22676;51.120;3.702;2023-08-24T03:35:20;2.30;;;1.33;;
36689;SDS011;22676;51.120;3.702;2023-08-24T03:37:47;1.05;;;0.98;;
36689;SDS011;22676;51.120;3.702;2023-08-24T03:40:12;1.42;;;1.10;;
36689;SDS011;22676;51.120;3.702;2023-08-24T03:42:38;1.00;;;1.00;;
36689;SDS011;22676;51.120;3.702;2023-08-24T03:45:04;1.45;;;1.02;;
36689;SDS011;22676;51.120;3.702;2023-08-24T03:47:30;1.20;;;1.10;;
36689;SDS011;22676;51.120;3.702;2023-08-24T03:49:56;1.08;;;0.98;;
36689;SDS011;22676;51.120;3.702;2023-08-24T03:52:22;1.30;;;1.10;;
36689;SDS011;22676;51.120;3.702;2023-08-24T03:54:47;2.05;;;1.27;;
36689;SDS011;22676;51.120;3.702;2023-08-24T03:57:13;1.05;;;0.95;;
36689;SDS011;22676;51.120;3.702;2023-08-24T03:59:40;2.53;;;1.60;;
36689;SDS011;22676;51.120;3.702;2023-08-24T04:02:06;1.50;;;1.40;;
36689;SDS011;22676;51.120;3.702;2023-08-24T04:04:32;2.05;;;1.55;;
36689;SDS011;22676;51.120;3.702;2023-08-24T04:06:58;1.40;;;1.20;;
36689;SDS011;22676;51.120;3.702;2023-08-24T04:09:24;1.55;;;1.42;;
36689;SDS011;22676;51.120;3.702;2023-08-24T04:11:49;1.67;;;1.00;;
36689;SDS011;22676;51.120;3.702;2023-08-24T04:14:15;1.30;;;1.13;;
36689;SDS011;22676;51.120;3.702;2023-08-24T04:16:41;1.42;;;1.20;;
36689;SDS011;22676;51.120;3.702;2023-08-24T04:19:07;1.25;;;1.15;;
36689;SDS011;22676;51.120;3.702;2023-08-24T04:21:33;2.00;;;1.17;;
36689;SDS011;22676;51.120;3.702;2023-08-24T04:23:59;1.23;;;1.13;;
36689;SDS011;22676;51.120;3.702;2023-08-24T04:26:24;1.17;;;1.08;;
36689;SDS011;22676;51.120;3.702;2023-08-24T04:28:50;1.65;;;1.20;;
36689;SDS011;22676;51.120;3.702;2023-08-24T04:31:16;1.27;;;1.13;;
36689;SDS011;22676;51.120;3.702;2023-08-24T04:33:41;0.90;;;0.90;;
36689;SDS011;22676;51.120;3.702;2023-08-24T04:36:07;2.75;;;1.23;;
36689;SDS011;22676;51.120;3.702;2023-08-24T04:38:33;1.45;;;1.20;;
36689;SDS011;22676;51.120;3.702;2023-08-24T04:40:59;1.10;;;1.00;;
36689;SDS011;22676;51.120;3.702;2023-08-24T04:43:25;1.27;;;1.17;;
36689;SDS011;22676;51.120;3.702;2023-08-24T04:45:52;1.35;;;1.10;;
36689;SDS011;22676;51.120;3.702;2023-08-24T04:48:22;2.00;;;1.20;;
36689;SDS011;22676;51.120;3.702;2023-08-24T04:50:48;1.10;;;1.00;;
36689;SDS011;22676;51.120;3.702;2023-08-24T04:53:16;1.10;;;1.00;;
36689;SDS011;22676;51.120;3.702;2023-08-24T04:55:42;1.52;;;1.42;;
36689;SDS011;22676;51.120;3.702;2023-08-24T04:58:08;2.35;;;1.98;;
36689;SDS011;22676;51.120;3.702;2023-08-24T05:00:35;3.22;;;1.70;;
36689;SDS011;22676;51.120;3.702;2023-08-24T05:03:04;1.83;;;1.70;;
36689;SDS011;22676;51.120;3.702;2023-08-24T05:05:31;2.63;;;1.70;;
36689;SDS011;22676;51.120;3.702;2023-08-24T05:07:57;1.27;;;1.15;;
36689;SDS011;22676;51.120;3.702;2023-08-24T05:10:24;1.65;;;1.55;;
36689;SDS011;22676;51.120;3.702;2023-08-24T05:12:50;1.27;;;1.17;;
36689;SDS011;22676;51.120;3.702;2023-08-24T05:15:16;1.35;;;1.25;;
36689;SDS011;22676;51.120;3.702;2023-08-24T05:17:42;1.15;;;1.05;;
36689;SDS011;22676;51.120;3.702;2023-08-24T05:20:08;2.67;;;1.35;;
36689;SDS011;22676;51.120;3.702;2023-08-24T05:22:37;1.58;;;1.20;;
36689;SDS011;22676;51.120;3.702;2023-08-24T05:25:03;1.50;;;1.40;;
36689;SDS011;22676;51.120;3.702;2023-08-24T05:27:32;1.50;;;1.40;;
36689;SDS011;22676;51.120;3.702;2023-08-24T05:29:58;1.30;;;1.20;;
36689;SDS011;22676;51.120;3.702;2023-08-24T05:32:23;1.10;;;1.10;;
36689;SDS011;22676;51.120;3.702;2023-08-24T05:34:49;1.27;;;1.20;;
36689;SDS011;22676;51.120;3.702;2023-08-24T05:37:15;1.10;;;1.02;;
36689;SDS011;22676;51.120;3.702;2023-08-24T05:39:41;1.40;;;1.30;;
36689;SDS011;22676;51.120;3.702;2023-08-24T05:42:07;1.08;;;1.08;;
36689;SDS011;22676;51.120;3.702;2023-08-24T05:44:34;1.60;;;1.33;;
36689;SDS011;22676;51.120;3.702;2023-08-24T05:47:00;1.60;;;1.50;;
36689;SDS011;22676;51.120;3.702;2023-08-24T05:49:25;1.50;;;1.40;;
36689;SDS011;22676;51.120;3.702;2023-08-24T05:51:51;1.40;;;1.30;;
36689;SDS011;22676;51.120;3.702;2023-08-24T05:54:18;1.40;;;1.30;;
36689;SDS011;22676;51.120;3.702;2023-08-24T05:56:44;1.95;;;1.80;;
36689;SDS011;22676;51.120;3.702;2023-08-24T05:59:13;3.40;;;2.28;;
36689;SDS011;22676;51.120;3.702;2023-08-24T06:01:39;2.80;;;2.60;;
36689;SDS011;22676;51.120;3.702;2023-08-24T06:04:06;4.18;;;2.10;;
36689;SDS011;22676;51.120;3.702;2023-08-24T06:06:35;2.05;;;1.42;;
36689;SDS011;22676;51.120;3.702;2023-08-24T06:09:02;1.73;;;1.35;;
36689;SDS011;22676;51.120;3.702;2023-08-24T06:11:32;2.08;;;1.83;;
36689;SDS011;22676;51.120;3.702;2023-08-24T06:13:58;1.40;;;1.30;;
36689;SDS011;22676;51.120;3.702;2023-08-24T06:16:24;1.92;;;1.80;;
36689;SDS011;22676;51.120;3.702;2023-08-24T06:18:49;2.08;;;1.50;;
36689;SDS011;22676;51.120;3.702;2023-08-24T06:21:16;1.60;;;1.50;;
36689;SDS011;22676;51.120;3.702;2023-08-24T06:23:42;2.55;;;1.50;;
36689;SDS011;22676;51.120;3.702;2023-08-24T06:26:09;1.50;;;1.40;;
36689;SDS011;22676;51.120;3.702;2023-08-24T06:28:35;1.75;;;1.65;;
36689;SDS011;22676;51.120;3.702;2023-08-24T06:31:00;1.30;;;1.20;;
36689;SDS011;22676;51.120;3.702;2023-08-24T06:33:29;1.50;;;1.40;;
36689;SDS011;22676;51.120;3.702;2023-08-24T06:35:58;1.02;;;1.02;;
36689;SDS011;22676;51.120;3.702;2023-08-24T06:38:25;2.50;;;1.30;;
36689;SDS011;22676;51.120;3.702;2023-08-24T06:40:51;2.33;;;1.60;;
36689;SDS011;22676;51.120;3.702;2023-08-24T06:43:16;1.65;;;1.52;;
36689;SDS011;22676;51.120;3.702;2023-08-24T06:45:43;1.30;;;1.20;;
36689;SDS011;22676;51.120;3.702;2023-08-24T06:48:09;1.40;;;1.30;;
36689;SDS011;22676;51.120;3.702;2023-08-24T06:50:35;2.15;;;1.50;;
36689;SDS011;22676;51.120;3.702;2023-08-24T06:53:01;1.30;;;1.20;;
36689;SDS011;22676;51.120;3.702;2023-08-24T06:55:28;1.63;;;1.52;;
36689;SDS011;22676;51.120;3.702;2023-08-24T06:57:54;2.03;;;1.80;;
36689;SDS011;22676;51.120;3.702;2023-08-24T07:00:20;1.98;;;1.80;;
36689;SDS011;22676;51.120;3.702;2023-08-24T07:02:47;1.67;;;1.58;;
36689;SDS011;22676;51.120;3.702;2023-08-24T07:05:13;2.53;;;1.55;;
36689;SDS011;22676;51.120;3.702;2023-08-24T07:07:39;1.50;;;1.40;;
36689;SDS011;22676;51.120;3.702;2023-08-24T07:10:08;1.65;;;1.50;;
36689;SDS011;22676;51.120;3.702;2023-08-24T07:12:34;1.70;;;1.58;;
36689;SDS011;22676;51.120;3.702;2023-08-24T07:14:59;1.27;;;1.17;;
36689;SDS011;22676;51.120;3.702;2023-08-24T07:17:25;1.50;;;1.40;;
36689;SDS011;22676;51.120;3.702;2023-08-24T07:19:51;2.40;;;1.60;;
36689;SDS011;22676;51.120;3.702;2023-08-24T07:22:16;1.67;;;1.58;;
36689;SDS011;22676;51.120;3.702;2023-08-24T07:24:42;1.77;;;1.50;;
36689;SDS011;22676;51.120;3.702;2023-08-24T07:27:08;1.98;;;1.65;;
36689;SDS011;22676;51.120;3.702;2023-08-24T07:29:34;1.98;;;1.50;;
36689;SDS011;22676;51.120;3.702;2023-08-24T07:32:00;1.70;;;1.40;;
36689;SDS011;22676;51.120;3.702;2023-08-24T07:34:25;1.40;;;1.30;;
36689;SDS011;22676;51.120;3.702;2023-08-24T07:36:51;1.63;;;1.48;;
36689;SDS011;22676;51.120;3.702;2023-08-24T07:39:17;1.70;;;1.50;;
36689;SDS011;22676;51.120;3.702;2023-08-24T07:41:42;1.48;;;1.38;;
36689;SDS011;22676;51.120;3.702;2023-08-24T07:44:09;1.50;;;1.40;;
36689;SDS011;22676;51.120;3.702;2023-08-24T07:46:35;1.60;;;1.50;;
36689;SDS011;22676;51.120;3.702;2023-08-24T07:49:01;1.75;;;1.65;;
36689;SDS011;22676;51.120;3.702;2023-08-24T07:51:26;1.70;;;1.60;;
36689;SDS011;22676;51.120;3.702;2023-08-24T07:53:53;1.48;;;1.38;;
36689;SDS011;22676;51.120;3.702;2023-08-24T07:56:19;1.60;;;1.50;;
36689;SDS011;22676;51.120;3.702;2023-08-24T07:58:45;2.28;;;1.80;;
36689;SDS011;22676;51.120;3.702;2023-08-24T08:01:11;2.00;;;1.75;;
36689;SDS011;22676;51.120;3.702;2023-08-24T08:03:36;2.10;;;1.50;;
36689;SDS011;22676;51.120;3.702;2023-08-24T08:06:02;2.10;;;1.65;;
36689;SDS011;22676;51.120;3.702;2023-08-24T08:08:29;1.65;;;1.55;;
36689;SDS011;22676;51.120;3.702;2023-08-24T08:10:59;1.67;;;1.50;;
36689;SDS011;22676;51.120;3.702;2023-08-24T08:13:25;1.60;;;1.50;;
36689;SDS011;22676;51.120;3.702;2023-08-24T08:15:51;1.40;;;1.30;;
36689;SDS011;22676;51.120;3.702;2023-08-24T08:18:17;1.38;;;1.30;;
36689;SDS011;22676;51.120;3.702;2023-08-24T08:20:43;1.95;;;1.48;;
36689;SDS011;22676;51.120;3.702;2023-08-24T08:23:08;3.08;;;1.70;;
36689;SDS011;22676;51.120;3.702;2023-08-24T08:25:34;2.45;;;1.60;;
36689;SDS011;22676;51.120;3.702;2023-08-24T08:28:00;1.98;;;1.60;;
36689;SDS011;22676;51.120;3.702;2023-08-24T08:30:25;1.95;;;1.80;;
36689;SDS011;22676;51.120;3.702;2023-08-24T08:32:51;1.77;;;1.63;;
36689;SDS011;22676;51.120;3.702;2023-08-24T08:35:17;4.50;;;1.90;;
36689;SDS011;22676;51.120;3.702;2023-08-24T08:37:44;1.92;;;1.52;;
36689;SDS011;22676;51.120;3.702;2023-08-24T08:40:10;2.47;;;2.00;;
36689;SDS011;22676;51.120;3.702;2023-08-24T08:42:36;4.22;;;1.90;;
36689;SDS011;22676;51.120;3.702;2023-08-24T08:45:02;2.30;;;1.60;;
36689;SDS011;22676;51.120;3.702;2023-08-24T08:47:32;3.25;;;2.00;;
36689;SDS011;22676;51.120;3.702;2023-08-24T08:49:58;2.38;;;1.60;;
36689;SDS011;22676;51.120;3.702;2023-08-24T08:52:27;2.25;;;1.75;;
36689;SDS011;22676;51.120;3.702;2023-08-24T08:54:53;1.90;;;1.70;;
36689;SDS011;22676;51.120;3.702;2023-08-24T08:57:19;3.17;;;2.28;;
36689;SDS011;22676;51.120;3.702;2023-08-24T08:59:47;3.22;;;2.72;;
36689;SDS011;22676;51.120;3.702;2023-08-24T09:02:16;3.47;;;1.95;;
36689;SDS011;22676;51.120;3.702;2023-08-24T09:04:44;5.18;;;2.15;;
36689;SDS011;22676;51.120;3.702;2023-08-24T09:07:12;2.92;;;2.05;;
36689;SDS011;22676;51.120;3.702;2023-08-24T09:09:38;2.40;;;1.92;;
36689;SDS011;22676;51.120;3.702;2023-08-24T09:12:05;2.78;;;2.00;;
36689;SDS011;22676;51.120;3.702;2023-08-24T09:14:31;3.85;;;2.13;;
36689;SDS011;22676;51.120;3.702;2023-08-24T09:16:58;2.10;;;1.77;;
36689;SDS011;22676;51.120;3.702;2023-08-24T09:19:30;2.92;;;1.90;;
36689;SDS011;22676;51.120;3.702;2023-08-24T09:21:58;2.85;;;2.15;;
36689;SDS011;22676;51.120;3.702;2023-08-24T09:24:31;3.58;;;1.80;;
36689;SDS011;22676;51.120;3.702;2023-08-24T09:26:58;4.15;;;1.70;;
36689;SDS011;22676;51.120;3.702;2023-08-24T09:29:25;2.65;;;1.92;;
36689;SDS011;22676;51.120;3.702;2023-08-24T09:31:51;2.47;;;2.00;;
36689;SDS011;22676;51.120;3.702;2023-08-24T09:34:20;2.42;;;1.95;;
36689;SDS011;22676;51.120;3.702;2023-08-24T09:36:51;2.90;;;2.10;;
36689;SDS011;22676;51.120;3.702;2023-08-24T09:39:17;3.00;;;1.98;;
36689;SDS011;22676;51.120;3.702;2023-08-24T09:41:45;2.40;;;1.77;;
36689;SDS011;22676;51.120;3.702;2023-08-24T09:44:12;2.45;;;1.80;;
36689;SDS011;22676;51.120;3.702;2023-08-24T09:46:38;1.95;;;1.75;;
36689;SDS011;22676;51.120;3.702;2023-08-24T09:49:06;2.95;;;1.98;;
36689;SDS011;22676;51.120;3.702;2023-08-24T09:51:34;3.58;;;2.00;;
36689;SDS011;22676;51.120;3.702;2023-08-24T09:54:01;2.75;;;2.00;;
36689;SDS011;22676;51.120;3.702;2023-08-24T09:56:31;2.13;;;1.92;;
36689;SDS011;22676;51.120;3.702;2023-08-24T09:59:03;2.35;;;2.00;;
36689;SDS011;22676;51.120;3.702;2023-08-24T10:01:44;2.42;;;2.05;;
36689;SDS011;22676;51.120;3.702;2023-08-24T10:04:12;2.28;;;2.00;;
36689;SDS011;22676;51.120;3.702;2023-08-24T10:06:42;2.92;;;1.83;;
36689;SDS011;22676;51.120;3.702;2023-08-24T10:09:11;2.13;;;1.92;;
36689;SDS011;22676;51.120;3.702;2023-08-24T10:12:00;2.17;;;1.80;;
36689;SDS011;22676;51.120;3.702;2023-08-24T10:14:29;3.85;;;1.70;;
36689;SDS011;22676;51.120;3.702;2023-08-24T10:16:59;3.22;;;1.88;;
36689;SDS011;22676;51.120;3.702;2023-08-24T10:19:26;2.97;;;2.03;;
36689;SDS011;22676;51.120;3.702;2023-08-24T10:21:53;2.97;;;2.13;;
36689;SDS011;22676;51.120;3.702;2023-08-24T10:24:22;3.42;;;2.25;;
36689;SDS011;22676;51.120;3.702;2023-08-24T10:26:48;1.77;;;1.63;;
36689;SDS011;22676;51.120;3.702;2023-08-24T10:29:15;2.40;;;1.90;;
36689;SDS011;22676;51.120;3.702;2023-08-24T10:31:42;2.08;;;1.67;;
36689;SDS011;22676;51.120;3.702;2023-08-24T10:34:09;2.83;;;1.80;;
36689;SDS011;22676;51.120;3.702;2023-08-24T10:36:38;3.03;;;1.70;;
36689;SDS011;22676;51.120;3.702;2023-08-24T10:39:05;1.75;;;1.50;;
36689;SDS011;22676;51.120;3.702;2023-08-24T10:41:50;2.30;;;1.55;;
36689;SDS011;22676;51.120;3.702;2023-08-24T10:44:36;1.45;;;1.35;;
36689;SDS011;22676;51.120;3.702;2023-08-24T10:47:20;2.80;;;1.73;;
36689;SDS011;22676;51.120;3.702;2023-08-24T10:52:20;2.28;;;1.70;;
36689;SDS011;22676;51.120;3.702;2023-08-24T10:54:50;1.92;;;1.83;;
36689;SDS011;22676;51.120;3.702;2023-08-24T10:57:35;2.25;;;2.05;;
36689;SDS011;22676;51.120;3.702;2023-08-24T11:00:04;4.60;;;1.90;;
36689;SDS011;22676;51.120;3.702;2023-08-24T11:02:44;2.13;;;1.92;;
36689;SDS011;22676;51.120;3.702;2023-08-24T11:08:06;2.67;;;1.75;;
36689;SDS011;22676;51.120;3.702;2023-08-24T11:13:11;1.75;;;1.60;;
36689;SDS011;22676;51.120;3.702;2023-08-24T11:15:48;2.35;;;1.50;;
36689;SDS011;22676;51.120;3.702;2023-08-24T11:18:26;2.22;;;1.40;;
36689;SDS011;22676;51.120;3.702;2023-08-24T11:20:54;2.37;;;1.67;;
36689;SDS011;22676;51.120;3.702;2023-08-24T11:23:27;1.50;;;1.40;;
36689;SDS011;22676;51.120;3.702;2023-08-24T11:25:54;1.83;;;1.70;;
36689;SDS011;22676;51.120;3.702;2023-08-24T11:28:24;1.98;;;1.77;;
36689;SDS011;22676;51.120;3.702;2023-08-24T11:30:52;1.70;;;1.60;;
36689;SDS011;22676;51.120;3.702;2023-08-24T11:33:28;2.60;;;1.80;;
36689;SDS011;22676;51.120;3.702;2023-08-24T11:35:55;1.92;;;1.70;;
36689;SDS011;22676;51.120;3.702;2023-08-24T11:38:21;1.98;;;1.77;;
36689;SDS011;22676;51.120;3.702;2023-08-24T11:40:47;3.17;;;1.73;;
36689;SDS011;22676;51.120;3.702;2023-08-24T11:43:12;2.15;;;1.75;;
36689;SDS011;22676;51.120;3.702;2023-08-24T11:45:49;1.50;;;1.40;;
36689;SDS011;22676;51.120;3.702;2023-08-24T11:48:14;2.25;;;1.40;;
36689;SDS011;22676;51.120;3.702;2023-08-24T11:50:40;2.00;;;1.80;;
36689;SDS011;22676;51.120;3.702;2023-08-24T11:53:07;2.22;;;1.80;;
36689;SDS011;22676;51.120;3.702;2023-08-24T11:55:32;2.05;;;1.80;;
36689;SDS011;22676;51.120;3.702;2023-08-24T11:57:59;2.15;;;1.75;;
36689;SDS011;22676;51.120;3.702;2023-08-24T12:00:25;1.70;;;1.60;;
36689;SDS011;22676;51.120;3.702;2023-08-24T12:02:51;1.70;;;1.60;;
36689;SDS011;22676;51.120;3.702;2023-08-24T12:05:21;3.38;;;1.70;;
36689;SDS011;22676;51.120;3.702;2023-08-24T12:07:48;2.50;;;1.80;;
36689;SDS011;22676;51.120;3.702;2023-08-24T12:10:14;2.33;;;1.60;;
36689;SDS011;22676;51.120;3.702;2023-08-24T12:12:40;1.92;;;1.75;;
36689;SDS011;22676;51.120;3.702;2023-08-24T12:15:06;1.92;;;1.50;;
36689;SDS011;22676;51.120;3.702;2023-08-24T12:17:42;1.55;;;1.45;;
36689;SDS011;22676;51.120;3.702;2023-08-24T12:20:15;2.00;;;1.40;;
36689;SDS011;22676;51.120;3.702;2023-08-24T12:22:51;1.60;;;1.42;;
36689;SDS011;22676;51.120;3.702;2023-08-24T12:25:18;2.55;;;1.50;;
36689;SDS011;22676;51.120;3.702;2023-08-24T12:27:46;2.17;;;1.63;;
36689;SDS011;22676;51.120;3.702;2023-08-24T12:30:12;1.70;;;1.60;;
36689;SDS011;22676;51.120;3.702;2023-08-24T12:32:42;4.25;;;1.50;;
36689;SDS011;22676;51.120;3.702;2023-08-24T12:35:09;1.52;;;1.40;;
36689;SDS011;22676;51.120;3.702;2023-08-24T12:37:35;2.33;;;1.70;;
36689;SDS011;22676;51.120;3.702;2023-08-24T12:40:02;1.55;;;1.45;;
36689;SDS011;22676;51.120;3.702;2023-08-24T12:42:30;1.38;;;1.27;;
36689;SDS011;22676;51.120;3.702;2023-08-24T12:44:56;2.38;;;1.52;;
36689;SDS011;22676;51.120;3.702;2023-08-24T12:47:22;1.63;;;1.48;;
36689;SDS011;22676;51.120;3.702;2023-08-24T12:49:48;1.45;;;1.35;;
36689;SDS011;22676;51.120;3.702;2023-08-24T12:52:15;1.60;;;1.50;;
36689;SDS011;22676;51.120;3.702;2023-08-24T12:54:41;2.30;;;1.60;;
36689;SDS011;22676;51.120;3.702;2023-08-24T12:57:07;1.50;;;1.40;;
36689;SDS011;22676;51.120;3.702;2023-08-24T12:59:33;1.52;;;1.42;;
36689;SDS011;22676;51.120;3.702;2023-08-24T13:01:59;2.38;;;1.48;;
36689;SDS011;22676;51.120;3.702;2023-08-24T13:04:24;2.15;;;1.40;;
36689;SDS011;22676;51.120;3.702;2023-08-24T13:06:52;1.40;;;1.30;;
36689;SDS011;22676;51.120;3.702;2023-08-24T13:09:17;2.65;;;1.50;;
36689;SDS011;22676;51.120;3.702;2023-08-24T13:11:43;1.67;;;1.42;;
36689;SDS011;22676;51.120;3.702;2023-08-24T13:14:09;1.55;;;1.45;;
36689;SDS011;22676;51.120;3.702;2023-08-24T13:16:34;1.60;;;1.50;;
36689;SDS011;22676;51.120;3.702;2023-08-24T13:19:00;3.90;;;1.58;;
36689;SDS011;22676;51.120;3.702;2023-08-24T13:21:26;1.67;;;1.58;;
36689;SDS011;22676;51.120;3.702;2023-08-24T13:23:51;2.42;;;1.60;;
36689;SDS011;22676;51.120;3.702;2023-08-24T13:26:17;1.55;;;1.45;;
36689;SDS011;22676;51.120;3.702;2023-08-24T13:28:48;1.47;;;1.30;;
36689;SDS011;22676;51.120;3.702;2023-08-24T13:31:14;2.05;;;1.67;;
36689;SDS011;22676;51.120;3.702;2023-08-24T13:33:40;3.30;;;1.52;;
36689;SDS011;22676;51.120;3.702;2023-08-24T13:36:05;1.50;;;1.35;;
36689;SDS011;22676;51.120;3.702;2023-08-24T13:38:31;1.75;;;1.45;;
36689;SDS011;22676;51.120;3.702;2023-08-24T13:40:57;3.42;;;1.52;;
36689;SDS011;22676;51.120;3.702;2023-08-24T13:43:22;1.65;;;1.30;;
36689;SDS011;22676;51.120;3.702;2023-08-24T13:45:48;1.60;;;1.50;;
36689;SDS011;22676;51.120;3.702;2023-08-24T13:48:14;1.48;;;1.38;;
36689;SDS011;22676;51.120;3.702;2023-08-24T13:50:49;1.42;;;1.30;;
36689;SDS011;22676;51.120;3.702;2023-08-24T13:53:17;1.30;;;1.20;;
36689;SDS011;22676;51.120;3.702;2023-08-24T13:55:43;1.45;;;1.35;;
36689;SDS011;22676;51.120;3.702;2023-08-24T13:58:08;1.15;;;1.10;;
36689;SDS011;22676;51.120;3.702;2023-08-24T14:00:34;1.77;;;1.50;;
36689;SDS011;22676;51.120;3.702;2023-08-24T14:03:00;1.60;;;1.50;;
36689;SDS011;22676;51.120;3.702;2023-08-24T14:05:25;2.38;;;1.40;;
36689;SDS011;22676;51.120;3.702;2023-08-24T14:07:51;2.20;;;1.50;;
36689;SDS011;22676;51.120;3.702;2023-08-24T14:10:16;1.58;;;1.40;;
36689;SDS011;22676;51.120;3.702;2023-08-24T14:12:43;1.45;;;1.30;;
36689;SDS011;22676;51.120;3.702;2023-08-24T14:15:09;1.30;;;1.20;;
36689;SDS011;22676;51.120;3.702;2023-08-24T14:17:36;1.80;;;1.45;;
36689;SDS011;22676;51.120;3.702;2023-08-24T14:20:02;1.40;;;1.30;;
36689;SDS011;22676;51.120;3.702;2023-08-24T14:22:29;1.63;;;1.30;;
36689;SDS011;22676;51.120;3.702;2023-08-24T14:24:55;1.48;;;1.38;;
36689;SDS011;22676;51.120;3.702;2023-08-24T14:27:20;1.48;;;1.38;;
36689;SDS011;22676;51.120;3.702;2023-08-24T14:29:46;1.48;;;1.38;;
36689;SDS011;22676;51.120;3.702;2023-08-24T14:32:12;1.30;;;1.20;;
36689;SDS011;22676;51.120;3.702;2023-08-24T14:34:38;1.38;;;1.20;;
36689;SDS011;22676;51.120;3.702;2023-08-24T14:37:03;1.80;;;1.30;;
36689;SDS011;22676;51.120;3.702;2023-08-24T14:39:29;1.95;;;1.23;;
36689;SDS011;22676;51.120;3.702;2023-08-24T14:41:55;1.33;;;1.00;;
36689;SDS011;22676;51.120;3.702;2023-08-24T14:44:20;1.48;;;1.38;;
36689;SDS011;22676;51.120;3.702;2023-08-24T14:46:46;1.67;;;1.23;;
36689;SDS011;22676;51.120;3.702;2023-08-24T14:49:12;1.20;;;1.13;;
36689;SDS011;22676;51.120;3.702;2023-08-24T14:51:43;1.45;;;1.13;;
36689;SDS011;22676;51.120;3.702;2023-08-24T14:54:09;3.10;;;1.70;;
36689;SDS011;22676;51.120;3.702;2023-08-24T14:56:37;1.30;;;1.20;;
36689;SDS011;22676;51.120;3.702;2023-08-24T14:59:02;1.63;;;1.33;;
36689;SDS011;22676;51.120;3.702;2023-08-24T15:01:28;2.55;;;1.50;;
36689;SDS011;22676;51.120;3.702;2023-08-24T15:03:54;1.77;;;1.35;;